sensor_id;sensor_type;location;lat;lon;timestamp;pressure;altitude;pressure_sealevel;temperature
10058;BMP180;5068;51.286;7.518;2022-11-15T00:00:18;98752.00;;;10.50
10058;BMP180;5068;51.286;7.518;2022-11-15T00:02:11;98744.00;;;10.50
10058;BMP180;5068;51.286;7.518;2022-11-15T00:04:04;98736.00;;;10.60
10058;BMP180;5068;51.286;7.518;2022-11-15T00:06:02;98735.00;;;10.60
10058;BMP180;5068;51.286;7.518;2022-11-15T00:07:57;98734.00;;;10.60
10058;BMP180;5068;51.286;7.518;2022-11-15T00:09:50;98727.00;;;10.70
10058;BMP180;5068;51.286;7.518;2022-11-15T00:11:43;98728.00;;;10.70
10058;BMP180;5068;51.286;7.518;2022-11-15T00:13:38;98721.00;;;10.70
10058;BMP180;5068;51.286;7.518;2022-11-15T00:15:31;98721.00;;;10.70
10058;BMP180;5068;51.286;7.518;2022-11-15T00:17:24;98724.00;;;10.80
10058;BMP180;5068;51.286;7.518;2022-11-15T00:19:17;98715.00;;;10.80
10058;BMP180;5068;51.286;7.518;2022-11-15T00:21:13;98720.00;;;10.80
10058;BMP180;5068;51.286;7.518;2022-11-15T00:23:06;98720.00;;;10.90
10058;BMP180;5068;51.286;7.518;2022-11-15T00:24:59;98716.00;;;10.90
10058;BMP180;5068;51.286;7.518;2022-11-15T00:26:52;98715.00;;;11.00
10058;BMP180;5068;51.286;7.518;2022-11-15T00:28:47;98719.00;;;11.00
10058;BMP180;5068;51.286;7.518;2022-11-15T00:30:40;98723.00;;;11.10
10058;BMP180;5068;51.286;7.518;2022-11-15T00:32:33;98722.00;;;11.10
10058;BMP180;5068;51.286;7.518;2022-11-15T00:34:27;98722.00;;;11.20
10058;BMP180;5068;51.286;7.518;2022-11-15T00:36:20;98719.00;;;11.20
10058;BMP180;5068;51.286;7.518;2022-11-15T00:38:13;98721.00;;;11.20
10058;BMP180;5068;51.286;7.518;2022-11-15T00:40:08;98709.00;;;11.30
10058;BMP180;5068;51.286;7.518;2022-11-15T00:42:01;98706.00;;;11.30
10058;BMP180;5068;51.286;7.518;2022-11-15T00:43:56;98709.00;;;11.40
10058;BMP180;5068;51.286;7.518;2022-11-15T00:45:49;98714.00;;;11.40
10058;BMP180;5068;51.286;7.518;2022-11-15T00:47:44;98710.00;;;11.40
10058;BMP180;5068;51.286;7.518;2022-11-15T00:49:37;98704.00;;;11.40
10058;BMP180;5068;51.286;7.518;2022-11-15T00:51:31;98713.00;;;11.50
10058;BMP180;5068;51.286;7.518;2022-11-15T00:53:24;98710.00;;;11.50
10058;BMP180;5068;51.286;7.518;2022-11-15T00:55:18;98700.00;;;11.50
10058;BMP180;5068;51.286;7.518;2022-11-15T00:57:12;98692.00;;;11.60
10058;BMP180;5068;51.286;7.518;2022-11-15T00:59:06;98701.00;;;11.60
10058;BMP180;5068;51.286;7.518;2022-11-15T01:01:07;98707.00;;;11.60
10058;BMP180;5068;51.286;7.518;2022-11-15T01:03:01;98708.00;;;11.60
10058;BMP180;5068;51.286;7.518;2022-11-15T01:04:54;98699.00;;;11.70
10058;BMP180;5068;51.286;7.518;2022-11-15T01:06:47;98695.00;;;11.70
10058;BMP180;5068;51.286;7.518;2022-11-15T01:08:41;98699.00;;;11.70
10058;BMP180;5068;51.286;7.518;2022-11-15T01:10:34;98698.00;;;11.80
10058;BMP180;5068;51.286;7.518;2022-11-15T01:12:29;98694.00;;;11.80
10058;BMP180;5068;51.286;7.518;2022-11-15T01:14:24;98694.00;;;11.80
10058;BMP180;5068;51.286;7.518;2022-11-15T01:16:18;98701.00;;;11.90
10058;BMP180;5068;51.286;7.518;2022-11-15T01:18:11;98698.00;;;11.90
10058;BMP180;5068;51.286;7.518;2022-11-15T01:20:06;98697.00;;;11.90
10058;BMP180;5068;51.286;7.518;2022-11-15T01:21:59;98699.00;;;12.00
10058;BMP180;5068;51.286;7.518;2022-11-15T01:23:53;98689.00;;;12.00
10058;BMP180;5068;51.286;7.518;2022-11-15T01:25:46;98694.00;;;12.00
10058;BMP180;5068;51.286;7.518;2022-11-15T01:27:39;98695.00;;;12.00
10058;BMP180;5068;51.286;7.518;2022-11-15T01:29:34;98703.00;;;12.10
10058;BMP180;5068;51.286;7.518;2022-11-15T01:31:27;98695.00;;;12.10
10058;BMP180;5068;51.286;7.518;2022-11-15T01:33:21;98698.00;;;12.20
10058;BMP180;5068;51.286;7.518;2022-11-15T01:35:15;98688.00;;;12.20
10058;BMP180;5068;51.286;7.518;2022-11-15T01:37:08;98679.00;;;12.20
10058;BMP180;5068;51.286;7.518;2022-11-15T01:39:01;98686.00;;;12.30
10058;BMP180;5068;51.286;7.518;2022-11-15T01:40:55;98680.00;;;12.30
10058;BMP180;5068;51.286;7.518;2022-11-15T01:42:48;98688.00;;;12.30
10058;BMP180;5068;51.286;7.518;2022-11-15T01:44:46;98688.00;;;12.40
10058;BMP180;5068;51.286;7.518;2022-11-15T01:46:45;98681.00;;;12.40
10058;BMP180;5068;51.286;7.518;2022-11-15T01:48:40;98683.00;;;12.40
10058;BMP180;5068;51.286;7.518;2022-11-15T01:50:33;98683.00;;;12.40
10058;BMP180;5068;51.286;7.518;2022-11-15T01:52:30;98677.00;;;12.50
10058;BMP180;5068;51.286;7.518;2022-11-15T01:54:25;98680.00;;;12.50
10058;BMP180;5068;51.286;7.518;2022-11-15T01:56:22;98680.00;;;12.50
10058;BMP180;5068;51.286;7.518;2022-11-15T01:58:16;98680.00;;;12.50
10058;BMP180;5068;51.286;7.518;2022-11-15T02:00:15;98672.00;;;12.50
10058;BMP180;5068;51.286;7.518;2022-11-15T02:02:09;98681.00;;;12.50
10058;BMP180;5068;51.286;7.518;2022-11-15T02:04:09;98671.00;;;12.50
10058;BMP180;5068;51.286;7.518;2022-11-15T02:06:05;98672.00;;;12.50
10058;BMP180;5068;51.286;7.518;2022-11-15T02:08:00;98668.00;;;12.50
10058;BMP180;5068;51.286;7.518;2022-11-15T02:09:54;98665.00;;;12.50
10058;BMP180;5068;51.286;7.518;2022-11-15T02:11:49;98675.00;;;12.50
10058;BMP180;5068;51.286;7.518;2022-11-15T02:13:44;98676.00;;;12.50
10058;BMP180;5068;51.286;7.518;2022-11-15T02:15:58;98663.00;;;12.50
10058;BMP180;5068;51.286;7.518;2022-11-15T02:18:09;98665.00;;;12.50
10058;BMP180;5068;51.286;7.518;2022-11-15T02:20:36;98667.00;;;12.50
10058;BMP180;5068;51.286;7.518;2022-11-15T02:22:46;98657.00;;;12.40
10058;BMP180;5068;51.286;7.518;2022-11-15T02:25:11;98656.00;;;12.40
10058;BMP180;5068;51.286;7.518;2022-11-15T02:30:33;98661.00;;;12.40
10058;BMP180;5068;51.286;7.518;2022-11-15T02:32:35;98661.00;;;12.40
10058;BMP180;5068;51.286;7.518;2022-11-15T02:34:40;98661.00;;;12.40
10058;BMP180;5068;51.286;7.518;2022-11-15T02:36:43;98660.00;;;12.40
10058;BMP180;5068;51.286;7.518;2022-11-15T02:38:47;98664.00;;;12.40
10058;BMP180;5068;51.286;7.518;2022-11-15T02:40:52;98656.00;;;12.40
10058;BMP180;5068;51.286;7.518;2022-11-15T02:42:54;98660.00;;;12.40
10058;BMP180;5068;51.286;7.518;2022-11-15T02:45:10;98652.00;;;12.50
10058;BMP180;5068;51.286;7.518;2022-11-15T02:47:10;98653.00;;;12.50
10058;BMP180;5068;51.286;7.518;2022-11-15T02:49:07;98656.00;;;12.50
10058;BMP180;5068;51.286;7.518;2022-11-15T02:51:01;98646.00;;;12.50
10058;BMP180;5068;51.286;7.518;2022-11-15T02:52:55;98642.00;;;12.50
10058;BMP180;5068;51.286;7.518;2022-11-15T02:54:54;98636.00;;;12.50
10058;BMP180;5068;51.286;7.518;2022-11-15T02:56:51;98639.00;;;12.50
10058;BMP180;5068;51.286;7.518;2022-11-15T02:59:01;98645.00;;;12.60
10058;BMP180;5068;51.286;7.518;2022-11-15T03:01:09;98634.00;;;12.60
10058;BMP180;5068;51.286;7.518;2022-11-15T03:03:35;98633.00;;;12.60
10058;BMP180;5068;51.286;7.518;2022-11-15T03:05:40;98636.00;;;12.60
10058;BMP180;5068;51.286;7.518;2022-11-15T03:07:42;98638.00;;;12.60
10058;BMP180;5068;51.286;7.518;2022-11-15T03:09:47;98633.00;;;12.60
10058;BMP180;5068;51.286;7.518;2022-11-15T03:11:49;98632.00;;;12.60
10058;BMP180;5068;51.286;7.518;2022-11-15T03:13:53;98630.00;;;12.60
10058;BMP180;5068;51.286;7.518;2022-11-15T03:15:57;98629.00;;;12.70
10058;BMP180;5068;51.286;7.518;2022-11-15T03:17:58;98634.00;;;12.70
10058;BMP180;5068;51.286;7.518;2022-11-15T03:19:58;98635.00;;;12.70
10058;BMP180;5068;51.286;7.518;2022-11-15T03:21:53;98638.00;;;12.70
10058;BMP180;5068;51.286;7.518;2022-11-15T03:23:50;98636.00;;;12.80
10058;BMP180;5068;51.286;7.518;2022-11-15T03:25:50;98642.00;;;12.80
10058;BMP180;5068;51.286;7.518;2022-11-15T03:27:50;98638.00;;;12.80
10058;BMP180;5068;51.286;7.518;2022-11-15T03:29:48;98638.00;;;12.80
10058;BMP180;5068;51.286;7.518;2022-11-15T03:31:48;98643.00;;;12.90
10058;BMP180;5068;51.286;7.518;2022-11-15T03:33:44;98640.00;;;12.90
10058;BMP180;5068;51.286;7.518;2022-11-15T03:35:42;98643.00;;;12.90
10058;BMP180;5068;51.286;7.518;2022-11-15T03:37:45;98631.00;;;12.90
10058;BMP180;5068;51.286;7.518;2022-11-15T03:39:41;98633.00;;;12.90
10058;BMP180;5068;51.286;7.518;2022-11-15T03:41:42;98626.00;;;13.00
10058;BMP180;5068;51.286;7.518;2022-11-15T03:43:44;98626.00;;;13.00
10058;BMP180;5068;51.286;7.518;2022-11-15T03:45:46;98635.00;;;13.00
10058;BMP180;5068;51.286;7.518;2022-11-15T03:47:47;98631.00;;;13.10
10058;BMP180;5068;51.286;7.518;2022-11-15T03:49:49;98632.00;;;13.10
10058;BMP180;5068;51.286;7.518;2022-11-15T03:51:45;98627.00;;;13.10
10058;BMP180;5068;51.286;7.518;2022-11-15T03:53:40;98631.00;;;13.10
10058;BMP180;5068;51.286;7.518;2022-11-15T03:55:33;98639.00;;;13.10
10058;BMP180;5068;51.286;7.518;2022-11-15T03:57:27;98632.00;;;13.20
10058;BMP180;5068;51.286;7.518;2022-11-15T03:59:20;98633.00;;;13.20
10058;BMP180;5068;51.286;7.518;2022-11-15T04:01:13;98630.00;;;13.30
10058;BMP180;5068;51.286;7.518;2022-11-15T04:03:06;98620.00;;;13.30
10058;BMP180;5068;51.286;7.518;2022-11-15T04:05:00;98619.00;;;13.30
10058;BMP180;5068;51.286;7.518;2022-11-15T04:06:54;98620.00;;;13.30
10058;BMP180;5068;51.286;7.518;2022-11-15T04:08:49;98616.00;;;13.40
10058;BMP180;5068;51.286;7.518;2022-11-15T04:10:42;98613.00;;;13.40
10058;BMP180;5068;51.286;7.518;2022-11-15T04:12:39;98603.00;;;13.40
10058;BMP180;5068;51.286;7.518;2022-11-15T04:14:34;98607.00;;;13.50
10058;BMP180;5068;51.286;7.518;2022-11-15T04:16:27;98597.00;;;13.50
10058;BMP180;5068;51.286;7.518;2022-11-15T04:18:21;98607.00;;;13.50
10058;BMP180;5068;51.286;7.518;2022-11-15T04:20:19;98605.00;;;13.50
10058;BMP180;5068;51.286;7.518;2022-11-15T04:22:32;98607.00;;;13.50
10058;BMP180;5068;51.286;7.518;2022-11-15T04:24:42;98607.00;;;13.50
10058;BMP180;5068;51.286;7.518;2022-11-15T04:26:36;98597.00;;;13.60
10058;BMP180;5068;51.286;7.518;2022-11-15T04:28:29;98615.00;;;13.60
10058;BMP180;5068;51.286;7.518;2022-11-15T04:30:22;98610.00;;;13.60
10058;BMP180;5068;51.286;7.518;2022-11-15T04:32:14;98609.00;;;13.60
10058;BMP180;5068;51.286;7.518;2022-11-15T04:34:07;98614.00;;;13.60
10058;BMP180;5068;51.286;7.518;2022-11-15T04:36:00;98608.00;;;13.60
10058;BMP180;5068;51.286;7.518;2022-11-15T04:38:12;98610.00;;;13.60
10058;BMP180;5068;51.286;7.518;2022-11-15T04:40:08;98608.00;;;13.60
10058;BMP180;5068;51.286;7.518;2022-11-15T04:42:01;98608.00;;;13.70
10058;BMP180;5068;51.286;7.518;2022-11-15T04:43:54;98599.00;;;13.70
10058;BMP180;5068;51.286;7.518;2022-11-15T04:45:47;98611.00;;;13.70
10058;BMP180;5068;51.286;7.518;2022-11-15T04:47:43;98614.00;;;13.80
10058;BMP180;5068;51.286;7.518;2022-11-15T04:49:37;98609.00;;;13.80
10058;BMP180;5068;51.286;7.518;2022-11-15T04:51:30;98609.00;;;13.80
10058;BMP180;5068;51.286;7.518;2022-11-15T04:53:24;98612.00;;;13.90
10058;BMP180;5068;51.286;7.518;2022-11-15T04:55:18;98608.00;;;13.90
10058;BMP180;5068;51.286;7.518;2022-11-15T04:57:11;98606.00;;;13.90
10058;BMP180;5068;51.286;7.518;2022-11-15T04:59:04;98606.00;;;13.90
10058;BMP180;5068;51.286;7.518;2022-11-15T05:00:57;98607.00;;;14.00
10058;BMP180;5068;51.286;7.518;2022-11-15T05:02:51;98608.00;;;14.00
10058;BMP180;5068;51.286;7.518;2022-11-15T05:05:02;98612.00;;;14.00
10058;BMP180;5068;51.286;7.518;2022-11-15T05:06:55;98604.00;;;14.00
10058;BMP180;5068;51.286;7.518;2022-11-15T05:08:50;98603.00;;;14.00
10058;BMP180;5068;51.286;7.518;2022-11-15T05:10:43;98609.00;;;14.00
10058;BMP180;5068;51.286;7.518;2022-11-15T05:12:37;98609.00;;;14.10
10058;BMP180;5068;51.286;7.518;2022-11-15T05:14:30;98604.00;;;14.10
10058;BMP180;5068;51.286;7.518;2022-11-15T05:16:23;98609.00;;;14.10
10058;BMP180;5068;51.286;7.518;2022-11-15T05:18:17;98607.00;;;14.10
10058;BMP180;5068;51.286;7.518;2022-11-15T05:20:14;98606.00;;;14.10
10058;BMP180;5068;51.286;7.518;2022-11-15T05:22:07;98603.00;;;14.10
10058;BMP180;5068;51.286;7.518;2022-11-15T05:24:03;98608.00;;;14.10
10058;BMP180;5068;51.286;7.518;2022-11-15T05:25:59;98608.00;;;14.10
10058;BMP180;5068;51.286;7.518;2022-11-15T05:27:59;98608.00;;;14.20
10058;BMP180;5068;51.286;7.518;2022-11-15T05:29:52;98612.00;;;14.20
10058;BMP180;5068;51.286;7.518;2022-11-15T05:31:46;98602.00;;;14.20
10058;BMP180;5068;51.286;7.518;2022-11-15T05:33:40;98610.00;;;14.20
10058;BMP180;5068;51.286;7.518;2022-11-15T05:35:42;98603.00;;;14.20
10058;BMP180;5068;51.286;7.518;2022-11-15T05:37:37;98605.00;;;14.20
10058;BMP180;5068;51.286;7.518;2022-11-15T05:39:32;98610.00;;;14.20
10058;BMP180;5068;51.286;7.518;2022-11-15T05:41:33;98607.00;;;14.20
10058;BMP180;5068;51.286;7.518;2022-11-15T05:43:30;98599.00;;;14.20
10058;BMP180;5068;51.286;7.518;2022-11-15T05:45:24;98607.00;;;14.20
10058;BMP180;5068;51.286;7.518;2022-11-15T05:47:22;98594.00;;;14.20
10058;BMP180;5068;51.286;7.518;2022-11-15T05:49:20;98597.00;;;14.20
10058;BMP180;5068;51.286;7.518;2022-11-15T05:51:16;98602.00;;;14.20
10058;BMP180;5068;51.286;7.518;2022-11-15T05:53:12;98612.00;;;14.20
10058;BMP180;5068;51.286;7.518;2022-11-15T05:55:12;98599.00;;;14.30
10058;BMP180;5068;51.286;7.518;2022-11-15T05:57:06;98598.00;;;14.30
10058;BMP180;5068;51.286;7.518;2022-11-15T05:58:59;98594.00;;;14.30
10058;BMP180;5068;51.286;7.518;2022-11-15T06:00:54;98598.00;;;14.30
10058;BMP180;5068;51.286;7.518;2022-11-15T06:02:47;98603.00;;;14.30
10058;BMP180;5068;51.286;7.518;2022-11-15T06:04:41;98601.00;;;14.30
10058;BMP180;5068;51.286;7.518;2022-11-15T06:06:34;98604.00;;;14.30
10058;BMP180;5068;51.286;7.518;2022-11-15T06:08:27;98607.00;;;14.30
10058;BMP180;5068;51.286;7.518;2022-11-15T06:10:21;98608.00;;;14.30
10058;BMP180;5068;51.286;7.518;2022-11-15T06:12:14;98614.00;;;14.30
10058;BMP180;5068;51.286;7.518;2022-11-15T06:14:08;98602.00;;;14.30
10058;BMP180;5068;51.286;7.518;2022-11-15T06:16:01;98606.00;;;14.30
10058;BMP180;5068;51.286;7.518;2022-11-15T06:17:56;98614.00;;;14.30
10058;BMP180;5068;51.286;7.518;2022-11-15T06:19:50;98610.00;;;14.40
10058;BMP180;5068;51.286;7.518;2022-11-15T06:21:43;98604.00;;;14.40
10058;BMP180;5068;51.286;7.518;2022-11-15T06:23:37;98604.00;;;14.40
10058;BMP180;5068;51.286;7.518;2022-11-15T06:25:31;98611.00;;;14.40
10058;BMP180;5068;51.286;7.518;2022-11-15T06:27:24;98619.00;;;14.40
10058;BMP180;5068;51.286;7.518;2022-11-15T06:29:17;98623.00;;;14.40
10058;BMP180;5068;51.286;7.518;2022-11-15T06:31:11;98621.00;;;14.40
10058;BMP180;5068;51.286;7.518;2022-11-15T06:33:05;98627.00;;;14.40
10058;BMP180;5068;51.286;7.518;2022-11-15T06:35:00;98621.00;;;14.40
10058;BMP180;5068;51.286;7.518;2022-11-15T06:36:53;98629.00;;;14.40
10058;BMP180;5068;51.286;7.518;2022-11-15T06:38:47;98621.00;;;14.40
10058;BMP180;5068;51.286;7.518;2022-11-15T06:40:42;98619.00;;;14.40
10058;BMP180;5068;51.286;7.518;2022-11-15T06:42:35;98619.00;;;14.40
10058;BMP180;5068;51.286;7.518;2022-11-15T06:44:28;98626.00;;;14.40
10058;BMP180;5068;51.286;7.518;2022-11-15T06:46:22;98625.00;;;14.40
10058;BMP180;5068;51.286;7.518;2022-11-15T06:48:15;98633.00;;;14.40
10058;BMP180;5068;51.286;7.518;2022-11-15T06:50:09;98629.00;;;14.40
10058;BMP180;5068;51.286;7.518;2022-11-15T06:52:02;98643.00;;;14.40
10058;BMP180;5068;51.286;7.518;2022-11-15T06:53:55;98646.00;;;14.40
10058;BMP180;5068;51.286;7.518;2022-11-15T06:55:50;98646.00;;;14.50
10058;BMP180;5068;51.286;7.518;2022-11-15T06:57:47;98657.00;;;14.50
10058;BMP180;5068;51.286;7.518;2022-11-15T06:59:41;98644.00;;;14.40
10058;BMP180;5068;51.286;7.518;2022-11-15T07:01:35;98649.00;;;14.40
10058;BMP180;5068;51.286;7.518;2022-11-15T07:03:28;98651.00;;;14.40
10058;BMP180;5068;51.286;7.518;2022-11-15T07:05:22;98652.00;;;14.40
10058;BMP180;5068;51.286;7.518;2022-11-15T07:07:16;98656.00;;;14.40
10058;BMP180;5068;51.286;7.518;2022-11-15T07:09:09;98657.00;;;14.40
10058;BMP180;5068;51.286;7.518;2022-11-15T07:11:06;98652.00;;;14.40
10058;BMP180;5068;51.286;7.518;2022-11-15T07:13:00;98654.00;;;14.40
10058;BMP180;5068;51.286;7.518;2022-11-15T07:14:53;98657.00;;;14.40
10058;BMP180;5068;51.286;7.518;2022-11-15T07:16:47;98650.00;;;14.40
10058;BMP180;5068;51.286;7.518;2022-11-15T07:18:40;98656.00;;;14.40
10058;BMP180;5068;51.286;7.518;2022-11-15T07:20:34;98647.00;;;14.40
10058;BMP180;5068;51.286;7.518;2022-11-15T07:22:27;98661.00;;;14.40
10058;BMP180;5068;51.286;7.518;2022-11-15T07:24:20;98655.00;;;14.40
10058;BMP180;5068;51.286;7.518;2022-11-15T07:26:15;98654.00;;;14.40
10058;BMP180;5068;51.286;7.518;2022-11-15T07:28:09;98663.00;;;14.40
10058;BMP180;5068;51.286;7.518;2022-11-15T07:30:04;98655.00;;;14.40
10058;BMP180;5068;51.286;7.518;2022-11-15T07:31:57;98658.00;;;14.40
10058;BMP180;5068;51.286;7.518;2022-11-15T07:33:50;98661.00;;;14.40
10058;BMP180;5068;51.286;7.518;2022-11-15T07:35:44;98656.00;;;14.40
10058;BMP180;5068;51.286;7.518;2022-11-15T07:37:41;98668.00;;;14.40
10058;BMP180;5068;51.286;7.518;2022-11-15T07:39:34;98673.00;;;14.30
10058;BMP180;5068;51.286;7.518;2022-11-15T07:41:29;98675.00;;;14.30
10058;BMP180;5068;51.286;7.518;2022-11-15T07:43:22;98673.00;;;14.30
10058;BMP180;5068;51.286;7.518;2022-11-15T07:45:14;98676.00;;;14.30
10058;BMP180;5068;51.286;7.518;2022-11-15T07:47:08;98674.00;;;14.30
10058;BMP180;5068;51.286;7.518;2022-11-15T07:49:01;98673.00;;;14.30
10058;BMP180;5068;51.286;7.518;2022-11-15T07:50:55;98674.00;;;14.30
10058;BMP180;5068;51.286;7.518;2022-11-15T07:52:53;98676.00;;;14.20
10058;BMP180;5068;51.286;7.518;2022-11-15T07:54:46;98679.00;;;14.30
10058;BMP180;5068;51.286;7.518;2022-11-15T07:56:40;98674.00;;;14.20
10058;BMP180;5068;51.286;7.518;2022-11-15T07:58:34;98677.00;;;14.20
10058;BMP180;5068;51.286;7.518;2022-11-15T08:00:27;98682.00;;;14.20
10058;BMP180;5068;51.286;7.518;2022-11-15T08:02:20;98681.00;;;14.20
10058;BMP180;5068;51.286;7.518;2022-11-15T08:04:20;98680.00;;;14.20
10058;BMP180;5068;51.286;7.518;2022-11-15T08:06:13;98676.00;;;14.20
10058;BMP180;5068;51.286;7.518;2022-11-15T08:08:08;98678.00;;;14.10
10058;BMP180;5068;51.286;7.518;2022-11-15T08:10:03;98677.00;;;14.20
10058;BMP180;5068;51.286;7.518;2022-11-15T08:11:59;98684.00;;;14.10
10058;BMP180;5068;51.286;7.518;2022-11-15T08:13:52;98680.00;;;14.20
10058;BMP180;5068;51.286;7.518;2022-11-15T08:15:45;98679.00;;;14.10
10058;BMP180;5068;51.286;7.518;2022-11-15T08:17:38;98675.00;;;14.10
10058;BMP180;5068;51.286;7.518;2022-11-15T08:19:31;98674.00;;;14.10
10058;BMP180;5068;51.286;7.518;2022-11-15T08:21:24;98670.00;;;14.10
10058;BMP180;5068;51.286;7.518;2022-11-15T08:23:18;98675.00;;;14.10
10058;BMP180;5068;51.286;7.518;2022-11-15T08:25:11;98675.00;;;14.10
10058;BMP180;5068;51.286;7.518;2022-11-15T08:27:06;98674.00;;;14.10
10058;BMP180;5068;51.286;7.518;2022-11-15T08:29:07;98668.00;;;14.10
10058;BMP180;5068;51.286;7.518;2022-11-15T08:31:00;98673.00;;;14.10
10058;BMP180;5068;51.286;7.518;2022-11-15T08:32:57;98676.00;;;14.10
10058;BMP180;5068;51.286;7.518;2022-11-15T08:34:51;98669.00;;;14.10
10058;BMP180;5068;51.286;7.518;2022-11-15T08:36:44;98663.00;;;14.10
10058;BMP180;5068;51.286;7.518;2022-11-15T08:38:37;98672.00;;;14.10
10058;BMP180;5068;51.286;7.518;2022-11-15T08:40:31;98663.00;;;14.10
10058;BMP180;5068;51.286;7.518;2022-11-15T08:42:26;98664.00;;;14.20
10058;BMP180;5068;51.286;7.518;2022-11-15T08:44:19;98665.00;;;14.20
10058;BMP180;5068;51.286;7.518;2022-11-15T08:46:13;98659.00;;;14.20
10058;BMP180;5068;51.286;7.518;2022-11-15T08:48:06;98666.00;;;14.20
10058;BMP180;5068;51.286;7.518;2022-11-15T08:50:00;98665.00;;;14.20
10058;BMP180;5068;51.286;7.518;2022-11-15T08:51:53;98656.00;;;14.20
10058;BMP180;5068;51.286;7.518;2022-11-15T08:53:46;98670.00;;;14.30
10058;BMP180;5068;51.286;7.518;2022-11-15T08:55:41;98661.00;;;14.30
10058;BMP180;5068;51.286;7.518;2022-11-15T08:57:35;98662.00;;;14.30
10058;BMP180;5068;51.286;7.518;2022-11-15T08:59:28;98656.00;;;14.30
10058;BMP180;5068;51.286;7.518;2022-11-15T09:01:22;98662.00;;;14.30
10058;BMP180;5068;51.286;7.518;2022-11-15T09:03:15;98665.00;;;14.30
10058;BMP180;5068;51.286;7.518;2022-11-15T09:05:09;98664.00;;;14.30
10058;BMP180;5068;51.286;7.518;2022-11-15T09:07:02;98653.00;;;14.40
10058;BMP180;5068;51.286;7.518;2022-11-15T09:08:56;98653.00;;;14.40
10058;BMP180;5068;51.286;7.518;2022-11-15T09:10:49;98660.00;;;14.40
10058;BMP180;5068;51.286;7.518;2022-11-15T09:12:43;98661.00;;;14.40
10058;BMP180;5068;51.286;7.518;2022-11-15T09:14:40;98658.00;;;14.40
10058;BMP180;5068;51.286;7.518;2022-11-15T09:16:34;98656.00;;;14.50
10058;BMP180;5068;51.286;7.518;2022-11-15T09:18:28;98649.00;;;14.50
10058;BMP180;5068;51.286;7.518;2022-11-15T09:20:21;98652.00;;;14.50
10058;BMP180;5068;51.286;7.518;2022-11-15T09:22:15;98648.00;;;14.50
10058;BMP180;5068;51.286;7.518;2022-11-15T09:24:08;98644.00;;;14.60
10058;BMP180;5068;51.286;7.518;2022-11-15T09:26:04;98642.00;;;14.60
10058;BMP180;5068;51.286;7.518;2022-11-15T09:27:59;98645.00;;;14.60
10058;BMP180;5068;51.286;7.518;2022-11-15T09:29:52;98635.00;;;14.70
10058;BMP180;5068;51.286;7.518;2022-11-15T09:31:45;98618.00;;;14.70
10058;BMP180;5068;51.286;7.518;2022-11-15T09:33:39;98629.00;;;14.70
10058;BMP180;5068;51.286;7.518;2022-11-15T09:35:33;98628.00;;;14.80
10058;BMP180;5068;51.286;7.518;2022-11-15T09:37:26;98625.00;;;14.80
10058;BMP180;5068;51.286;7.518;2022-11-15T09:39:19;98630.00;;;14.90
10058;BMP180;5068;51.286;7.518;2022-11-15T09:41:38;98615.00;;;14.90
10058;BMP180;5068;51.286;7.518;2022-11-15T09:43:45;98627.00;;;14.90
10058;BMP180;5068;51.286;7.518;2022-11-15T09:45:54;98625.00;;;14.90
10058;BMP180;5068;51.286;7.518;2022-11-15T09:50:36;98622.00;;;15.00
10058;BMP180;5068;51.286;7.518;2022-11-15T09:52:12;98627.00;;;15.00
10058;BMP180;5068;51.286;7.518;2022-11-15T09:53:55;98624.00;;;15.00
10058;BMP180;5068;51.286;7.518;2022-11-15T09:55:58;98632.00;;;15.10
10058;BMP180;5068;51.286;7.518;2022-11-15T09:57:41;98638.00;;;15.10
10058;BMP180;5068;51.286;7.518;2022-11-15T09:59:42;98623.00;;;15.10
10058;BMP180;5068;51.286;7.518;2022-11-15T10:01:34;98614.00;;;15.20
10058;BMP180;5068;51.286;7.518;2022-11-15T10:03:12;98627.00;;;15.20
10058;BMP180;5068;51.286;7.518;2022-11-15T10:04:47;98621.00;;;15.20
10058;BMP180;5068;51.286;7.518;2022-11-15T10:06:25;98620.00;;;15.20
10058;BMP180;5068;51.286;7.518;2022-11-15T10:08:06;98621.00;;;15.30
10058;BMP180;5068;51.286;7.518;2022-11-15T10:09:51;98605.00;;;15.30
10058;BMP180;5068;51.286;7.518;2022-11-15T10:11:29;98607.00;;;15.30
10058;BMP180;5068;51.286;7.518;2022-11-15T10:13:22;98612.00;;;15.40
10058;BMP180;5068;51.286;7.518;2022-11-15T10:15:02;98606.00;;;15.50
10058;BMP180;5068;51.286;7.518;2022-11-15T10:17:09;98599.00;;;15.50
10058;BMP180;5068;51.286;7.518;2022-11-15T10:18:58;98595.00;;;15.60
10058;BMP180;5068;51.286;7.518;2022-11-15T10:20:42;98594.00;;;15.60
10058;BMP180;5068;51.286;7.518;2022-11-15T10:22:26;98589.00;;;15.70
10058;BMP180;5068;51.286;7.518;2022-11-15T10:24:00;98583.00;;;15.70
10058;BMP180;5068;51.286;7.518;2022-11-15T10:25:34;98583.00;;;15.80
10058;BMP180;5068;51.286;7.518;2022-11-15T10:27:12;98574.00;;;15.80
10058;BMP180;5068;51.286;7.518;2022-11-15T10:28:46;98571.00;;;15.90
10058;BMP180;5068;51.286;7.518;2022-11-15T10:30:23;98570.00;;;15.90
10058;BMP180;5068;51.286;7.518;2022-11-15T10:31:56;98564.00;;;16.00
10058;BMP180;5068;51.286;7.518;2022-11-15T10:33:32;98566.00;;;16.00
10058;BMP180;5068;51.286;7.518;2022-11-15T10:35:22;98558.00;;;16.10
10058;BMP180;5068;51.286;7.518;2022-11-15T10:36:58;98558.00;;;16.10
10058;BMP180;5068;51.286;7.518;2022-11-15T10:38:32;98565.00;;;16.20
10058;BMP180;5068;51.286;7.518;2022-11-15T10:40:16;98560.00;;;16.20
10058;BMP180;5068;51.286;7.518;2022-11-15T10:41:50;98549.00;;;16.20
10058;BMP180;5068;51.286;7.518;2022-11-15T10:43:23;98552.00;;;16.30
10058;BMP180;5068;51.286;7.518;2022-11-15T10:44:58;98550.00;;;16.30
10058;BMP180;5068;51.286;7.518;2022-11-15T10:46:34;98547.00;;;16.40
10058;BMP180;5068;51.286;7.518;2022-11-15T10:48:24;98536.00;;;16.40
10058;BMP180;5068;51.286;7.518;2022-11-15T10:50:02;98523.00;;;16.50
10058;BMP180;5068;51.286;7.518;2022-11-15T10:51:44;98520.00;;;16.50
10058;BMP180;5068;51.286;7.518;2022-11-15T10:53:28;98518.00;;;16.60
10058;BMP180;5068;51.286;7.518;2022-11-15T10:55:25;98526.00;;;16.60
10058;BMP180;5068;51.286;7.518;2022-11-15T10:57:05;98517.00;;;16.70
10058;BMP180;5068;51.286;7.518;2022-11-15T10:58:43;98522.00;;;16.70
10058;BMP180;5068;51.286;7.518;2022-11-15T11:00:31;98524.00;;;16.80
10058;BMP180;5068;51.286;7.518;2022-11-15T11:02:30;98526.00;;;16.80
10058;BMP180;5068;51.286;7.518;2022-11-15T11:04:06;98521.00;;;16.90
10058;BMP180;5068;51.286;7.518;2022-11-15T11:05:40;98523.00;;;16.90
10058;BMP180;5068;51.286;7.518;2022-11-15T11:07:22;98537.00;;;16.90
10058;BMP180;5068;51.286;7.518;2022-11-15T11:08:58;98530.00;;;16.90
10058;BMP180;5068;51.286;7.518;2022-11-15T11:10:32;98519.00;;;16.90
10058;BMP180;5068;51.286;7.518;2022-11-15T11:12:29;98520.00;;;17.00